Nearby METAR Reports

 

KPMD - Palmdale, California, USA
Distance from station: NNE 12mi, 19km
Updated: Thu, 27-Apr-2017 10:53pm PDT
Clear
Clear
 Wind from WNW
Wind: WNW 23 mph , 37 km/h
Temperature: 63°F , 17°C
Dew Point: 30°F , -1°C
Humidity: 30%
Barometer: 29.82 inHg , 1009.8 hPa
Clouds: Clear
Visibility: 10 miles , 16 km
2017/04/28 05:53 KPMD 280553Z AUTO 30020KT 10SM CLR 17/M01 A2982 RMK AO2 PK WND 28030/0454 SLP080 T01721011 10211 20167 50003
KWJF - Lancaster/Fox, California, USA
Distance from station: N 17mi, 27km
Updated: Thu, 27-Apr-2017 10:56pm PDT
Clear
Clear
 Wind from W
Wind: W 8 mph , 13 km/h, Gust: 25 mph , 41 km/h
Temperature: 63°F , 17°C
Dew Point: 28°F , -2°C
Humidity: 27%
Barometer: 29.84 inHg , 1010.5 hPa
Clouds: Clear
Visibility: 10 miles , 16 km
2017/04/28 05:56 KWJF 280556Z AUTO 26007G22KT 210V300 10SM CLR 17/M02 A2984 RMK AO2 SLP095 T01721022 10206 20161 50002
 
KMWS - Mount Wilson, California, USA
Distance from station: SSE 18mi, 30km
Updated: Wed, 13-May-2015 6:45am PDT
NOT Current

 Wind from S
Wind: S 3 mph , 6 km/h, Gust: 5 mph , 7 km/h
Temperature: 43°F , 6°C
Dew Point: -0°F , -18°C
Humidity: 16%
2015/05/13 13:45 KMWS 131345Z 18003G04KT 06/M18 RMK SNOW DEPTH 1.00
KWHP - La / Whiteman, California, USA
Distance from station: SW 21mi, 34km
Updated: Thu, 27-Apr-2017 7:50pm PDT
NOT Current
Clear
Clear
 Wind from WNW
Wind: WNW 17 mph , 28 km/h, Gust: 29 mph , 46 km/h
Temperature: 73°F , 23°C
Dew Point: 32°F , 0°C
Humidity: 22%
Barometer: 29.82 inHg , 1009.8 hPa
Clouds: Clear
Visibility: 10 miles , 16 km
2017/04/28 02:50 KWHP 280250Z 30015G25KT 10SM SKC 23/00 A2982
 
KBUR - Burbank, California, USA
Distance from station: SSW 22mi, 35km
Updated: Thu, 27-Apr-2017 10:53pm PDT
Clear
Clear
 Wind from N
Wind: N 8 mph , 13 km/h
Temperature: 70°F , 21°C
Dew Point: 36°F , 2°C
Humidity: 29%
Barometer: 29.80 inHg , 1009.1 hPa
Clouds: Clear
Visibility: 10 miles , 16 km
2017/04/28 05:53 KBUR 280553Z 35007KT 10SM CLR 21/02 A2980 RMK AO2 SLP079 T02110017 10272 20211 51015
KVNY - Van Nuys, California, USA
Distance from station: SW 25mi, 40km
Updated: Thu, 27-Apr-2017 10:51pm PDT
Clear
Clear
 Wind from N
Wind: N 26 mph , 43 km/h, Gust: 39 mph , 63 km/h
Temperature: 72°F , 22°C
Dew Point: 32°F , 0°C
Humidity: 23%
Barometer: 29.78 inHg , 1008.5 hPa
Clouds: Clear
Visibility: 10 miles , 16 km
2017/04/28 05:51 KVNY 280551Z 35023G34KT 10SM CLR 22/00 A2978 RMK AO2 PK WND 35041/0513 SLP076 T02170000 10267 20211 51009
 
KEDW - Edwards Afb, California, USA
Distance from station: NNE 33mi, 53km
Updated: Thu, 27-Apr-2017 10:58pm PDT
Clear
Clear
 Wind from W
Wind: W 13 mph , 20 km/h, Gust: 28 mph , 44 km/h
Temperature: 61°F , 16°C
Dew Point: 28°F , -2°C
Humidity: 29%
Barometer: 29.81 inHg , 1009.5 hPa
Clouds: Clear
Visibility: 10 miles , 16 km
2017/04/28 05:58 KEDW 280558Z AUTO 28011G24KT 10SM CLR 16/M02 A2981 RMK AO2 PK WND 26039/20 SLPNO T01641020 10204 20164 53022
KSMO - Santa Monica, California, USA
Distance from station: SSW 35mi, 57km
Updated: Thu, 27-Apr-2017 10:51pm PDT
Clear
Clear
 Wind from N
Wind: N 20 mph , 31 km/h, Gust: 35 mph , 56 km/h
Temperature: 73°F , 23°C
Dew Point: 30°F , -1°C
Humidity: 20%
Barometer: 29.76 inHg , 1007.8 hPa
Clouds: Clear
Visibility: 10 miles , 16 km
2017/04/28 05:51 KSMO 280551Z AUTO 36017G30KT 10SM CLR 23/M01 A2976 RMK AO2 PK WND 35032/0525 SLP074 T02331011 10283 20206 51012 $
 
KLAX - Los Angeles, California, USA
Distance from station: SSW 39mi, 63km
Updated: Thu, 27-Apr-2017 10:53pm PDT
Partly cloudy
Partly cloudy
 Wind from N
Wind: N 18 mph , 30 km/h, Gust: 28 mph , 44 km/h
Temperature: 75°F , 24°C
Dew Point: 32°F , 0°C
Humidity: 21%
Barometer: 29.75 inHg , 1007.5 hPa
Clouds: Partly cloudy
Visibility: 10 miles , 16 km
Cloud details: Partly cloudy 20000 ft
2017/04/28 05:53 KLAX 280553Z 36016G24KT 10SM SCT200 24/00 A2975 RMK AO2 PK WND 34030/0520 SLP071 T02390000 10244 20178 50004
KMHV - Mojave, California, USA
Distance from station: N 41mi, 66km
Updated: Thu, 27-Apr-2017 10:40pm PDT
Clear
Clear
 Wind from SSW
Wind: SSW 15 mph , 24 km/h, Gust: 24 mph , 39 km/h
Temperature: 57°F , 14°C
Dew Point: 34°F , 1°C
Humidity: 41%
Barometer: 29.86 inHg , 1011.2 hPa
Clouds: Clear
Visibility: 10 miles , 16 km
2017/04/28 05:40 KMHV 280540Z AUTO 20013G21KT 180V250 10SM CLR 14/01 A2986 RMK A01
 
KFUL - Fullerton, California, USA
Distance from station: SSE 44mi, 70km
Updated: Thu, 27-Apr-2017 10:53pm PDT
Clear
Clear
 Wind from NW
Wind: NW 9 mph , 15 km/h, Gust: 20 mph , 31 km/h
Temperature: 77°F , 25°C
Dew Point: 34°F , 1°C
Humidity: 21%
Barometer: 29.70 inHg , 1005.8 hPa
Clouds: Clear
Visibility: 10 miles , 16 km
2017/04/28 05:53 KFUL 280553Z AUTO 32008G17KT 190V100 10SM CLR 25/01 A2970 RMK AO2 SLP057 T02500011 10294 20206 50005
KONT - Ontario, California, USA
Distance from station: SE 45mi, 72km
Updated: Thu, 27-Apr-2017 10:53pm PDT
Mostly cloudy
Mostly cloudy
 Wind from S
Wind: S 5 mph , 7 km/h
Temperature: 66°F , 19°C
Dew Point: 46°F , 8°C
Humidity: 49%
Barometer: 29.73 inHg , 1006.8 hPa
Clouds: Mostly cloudy
Visibility: 10 miles , 16 km
Cloud details: Mostly cloudy 20000 ft
2017/04/28 05:53 KONT 280553Z 17004KT 10SM BKN200 19/08 A2973 RMK AO2 SLP058 T01940078 10244 20189 50006
 
KLGB - Long Beach, California, USA
Distance from station: S 46mi, 74km
Updated: Thu, 27-Apr-2017 10:53pm PDT
Clear
Clear
 Wind from NNW
Wind: NNW 17 mph , 28 km/h, Gust: 36 mph , 57 km/h
Temperature: 77°F , 25°C
Dew Point: 28°F , -2°C
Humidity: 17%
Barometer: 29.73 inHg , 1006.8 hPa
Clouds: Clear
Visibility: 9 miles , 14 km
2017/04/28 05:53 KLGB 280553Z 33015G31KT 9SM CLR 25/M02 A2973 RMK AO2 PK WND 31031/0545 SLP065 T02501017 10267 20211 51007
KVCV - Victorville, California, USA
Distance from station: E 46mi, 74km
Updated: Thu, 27-Apr-2017 10:55pm PDT
Clear
Clear
 Wind from WSW
Wind: WSW 20 mph , 31 km/h, Gust: 24 mph , 39 km/h
Temperature: 61°F , 16°C
Dew Point: 30°F , -1°C
Humidity: 31%
Barometer: 29.83 inHg , 1010.2 hPa
Clouds: Clear
Visibility: 10 miles , 16 km
2017/04/28 05:55 KVCV 280555Z AUTO 25017G21KT 10SM CLR 16/M01 A2983 RMK AO2
 
KTSP - Tehachapi, California, USA
Distance from station: NNW 48mi, 77km
Updated: Thu, 27-Apr-2017 10:55pm PDT
Clear
Clear
 Wind from WNW
Wind: WNW 24 mph , 39 km/h, Gust: 45 mph , 72 km/h
Temperature: 50°F , 10°C
Wind Chill: 43°F , 6°C
Dew Point: 32°F , 0°C
Humidity: 50%
Barometer: 29.94 inHg , 1013.9 hPa
Clouds: Clear
Visibility: 10 miles , 16 km
2017/04/28 05:55 KTSP 280555Z AUTO 30021G39KT 10SM CLR 10/00 A2994 RMK AO2